Time;durP1;ratioP1;P1;durP2;ratioP2;P2;SDS_P1;SDS_P2;PMS_P1;PMS_P2;Temp;Humidity;BMP_temperature;BMP_pressure;BME280_temperature;BME280_humidity;BME280_pressure;Samples;Min_cycle;Max_cycle;Signal;HPM_P1;HPM_P2
2021/06/08 00:02:24;;;;;;;;;;;14.00;99.90;;;;;;5093479;28;19930;-68
2021/06/08 00:04:51;;;;;;;;;;;14.00;99.90;;;;;;5093598;28;19908;-70
2021/06/08 00:07:17;;;;;;;;;;;14.10;99.90;;;;;;5093267;28;19917;-69
2021/06/08 00:09:44;;;;;;;;;;;14.10;99.90;;;;;;5093539;28;19912;-69
2021/06/08 00:12:11;;;;;;;;;;;14.20;99.90;;;;;;5093540;28;19912;-69
2021/06/08 00:14:37;;;;;;;;;;;14.20;99.90;;;;;;5093588;28;19998;-68
2021/06/08 00:17:05;;;;;;;;;;;14.10;99.90;;;;;;5093380;28;20010;-68
2021/06/08 00:19:32;;;;;;;;;;;14.20;99.90;;;;;;5093511;28;20343;-69
2021/06/08 00:21:59;;;;;;;;;;;14.10;99.90;;;;;;5093492;28;19908;-69
2021/06/08 00:24:25;;;;;;;;;;;14.10;99.90;;;;;;5093393;28;20370;-72
2021/06/08 00:26:52;;;;;;;;;;;14.20;99.90;;;;;;5091811;28;19920;-69
2021/06/08 00:29:19;;;;;;;;;;;14.20;99.90;;;;;;5093345;28;19908;-68
2021/06/08 00:31:45;;;;;;;;;;;14.20;99.90;;;;;;5092028;28;20065;-71
2021/06/08 00:34:12;;;;;;;;;;;14.20;99.90;;;;;;5093276;28;19908;-68
2021/06/08 00:36:39;;;;;;;;;;;14.20;99.90;;;;;;5093534;28;19908;-68
2021/06/08 00:39:05;;;;;;;;;;;14.20;99.90;;;;;;5094009;28;19912;-68
2021/06/08 00:41:36;;;;;;;;;;;14.20;99.90;;;;;;5094745;28;19961;-67
2021/06/08 00:44:06;;;;;;;;;;;14.30;99.90;;;;;;5096554;28;20358;-69
2021/06/08 00:46:32;;;;;;;;;;;14.30;99.90;;;;;;5097203;28;20317;-69
2021/06/08 00:48:59;;;;;;;;;;;14.30;99.90;;;;;;5097042;28;19908;-69
2021/06/08 00:51:26;;;;;;;;;;;14.30;99.90;;;;;;5097126;28;19908;-69
2021/06/08 00:53:53;;;;;;;;;;;14.40;99.90;;;;;;5097267;28;20400;-69
2021/06/08 00:56:20;;;;;;;;;;;14.40;99.90;;;;;;5097267;28;19952;-71
2021/06/08 00:58:47;;;;;;;;;;;14.40;99.90;;;;;;5096881;28;20335;-69
2021/06/08 01:01:14;;;;;;;;;;;14.40;99.90;;;;;;5096895;28;19915;-71
2021/06/08 01:03:41;;;;;;;;;;;14.40;99.90;;;;;;5097162;28;19908;-69
2021/06/08 01:06:08;;;;;;;;;;;14.40;99.90;;;;;;5096793;28;19916;-69
2021/06/08 01:08:34;;;;;;;;;;;14.50;99.90;;;;;;5097120;28;20068;-71
2021/06/08 01:11:01;;;;;;;;;;;14.40;99.90;;;;;;5096744;28;19908;-70
2021/06/08 01:13:29;;;;;;;;;;;14.40;99.90;;;;;;5096985;28;19927;-71
2021/06/08 01:15:58;;;;;;;;;;;14.50;99.90;;;;;;5095964;28;19940;-70
2021/06/08 01:18:25;;;;;;;;;;;14.50;99.90;;;;;;5097109;28;19966;-70
2021/06/08 01:21:18;;;;;;;;;;;14.50;99.90;;;;;;5096515;28;20320;-70
2021/06/08 01:23:46;;;;;;;;;;;14.60;99.90;;;;;;5095424;28;19961;-69
2021/06/08 01:26:12;;;;;;;;;;;14.60;99.90;;;;;;5096758;28;20374;-69
2021/06/08 01:28:40;;;;;;;;;;;14.60;99.90;;;;;;5096718;28;19916;-69
2021/06/08 01:31:09;;;;;;;;;;;14.60;99.90;;;;;;5096428;28;20419;-69
2021/06/08 01:33:42;;;;;;;;;;;14.60;99.90;;;;;;5096559;28;19946;-68
2021/06/08 01:36:11;;;;;;;;;;;14.70;99.90;;;;;;5096235;28;20377;-70
2021/06/08 01:38:39;;;;;;;;;;;14.70;99.90;;;;;;5096557;28;19970;-69
2021/06/08 01:41:06;;;;;;;;;;;14.70;99.90;;;;;;5096117;28;19913;-69
2021/06/08 01:43:32;;;;;;;;;;;14.70;99.90;;;;;;5096441;28;19912;-70
2021/06/08 01:45:59;;;;;;;;;;;14.80;99.90;;;;;;5096322;28;20003;-70
2021/06/08 01:48:26;;;;;;;;;;;14.80;99.90;;;;;;5096342;28;19969;-69
2021/06/08 01:50:52;;;;;;;;;;;14.80;99.90;;;;;;5095999;28;19912;-67
2021/06/08 01:53:19;;;;;;;;;;;14.80;99.90;;;;;;5095906;28;20240;-69
2021/06/08 01:55:47;;;;;;;;;;;14.80;99.90;;;;;;5095998;28;19943;-70
2021/06/08 01:58:31;;;;;;;;;;;14.90;99.90;;;;;;5096024;28;20247;-70
2021/06/08 02:01:04;;;;;;;;;;;14.90;99.90;;;;;;5095956;28;20351;-70
2021/06/08 02:03:32;;;;;;;;;;;14.90;99.90;;;;;;5096038;28;19908;-69
2021/06/08 02:05:59;;;;;;;;;;;15.00;99.90;;;;;;5095976;28;19958;-70
2021/06/08 02:08:25;;;;;;;;;;;15.00;99.90;;;;;;5096451;28;20062;-71
2021/06/08 02:11:06;;;;;;;;;;;15.10;99.90;;;;;;5096925;28;19924;-70
2021/06/08 02:13:39;;;;;;;;;;;15.10;99.90;;;;;;5098191;28;19908;-70
2021/06/08 02:16:15;;;;;;;;;;;15.20;99.90;;;;;;5096032;28;19983;-70
2021/06/08 02:18:43;;;;;;;;;;;15.30;99.90;;;;;;5096143;28;20355;-70
2021/06/08 02:21:10;;;;;;;;;;;15.30;99.90;;;;;;5095501;28;20013;-70
2021/06/08 02:23:37;;;;;;;;;;;15.30;99.90;;;;;;5095658;28;19908;-68
2021/06/08 02:26:05;;;;;;;;;;;15.40;99.90;;;;;;5095387;28;19916;-70
2021/06/08 02:28:35;;;;;;;;;;;15.40;99.90;;;;;;5095618;28;19908;-70
2021/06/08 02:31:03;;;;;;;;;;;15.40;99.90;;;;;;5095293;28;20286;-70
2021/06/08 02:33:30;;;;;;;;;;;15.40;99.90;;;;;;5095373;28;19915;-70
2021/06/08 02:35:57;;;;;;;;;;;15.50;99.90;;;;;;5093944;28;19912;-70
2021/06/08 02:38:25;;;;;;;;;;;15.50;99.90;;;;;;5095323;28;19908;-70
2021/06/08 02:40:52;;;;;;;;;;;15.50;99.90;;;;;;5094977;28;19912;-71
2021/06/08 02:43:20;;;;;;;;;;;15.50;99.90;;;;;;5095124;28;19909;-70
2021/06/08 02:45:51;;;;;;;;;;;15.50;99.90;;;;;;5094993;28;20264;-69
2021/06/08 02:48:20;;;;;;;;;;;15.40;99.90;;;;;;5095205;28;20549;-70
2021/06/08 02:50:47;;;;;;;;;;;15.40;99.90;;;;;;5094840;28;19908;-70
2021/06/08 02:53:16;;;;;;;;;;;15.40;99.90;;;;;;5095030;28;19908;-69
2021/06/08 02:55:43;;;;;;;;;;;15.40;99.90;;;;;;5093976;28;19908;-70
2021/06/08 02:58:10;;;;;;;;;;;15.40;99.90;;;;;;5094919;28;19990;-70
2021/06/08 03:00:37;;;;;;;;;;;15.40;99.90;;;;;;5095164;28;20007;-70
2021/06/08 03:03:05;;;;;;;;;;;15.50;99.90;;;;;;5094768;28;19908;-71
2021/06/08 03:05:38;;;;;;;;;;;15.50;99.90;;;;;;5093815;28;20003;-70
2021/06/08 03:08:09;;;;;;;;;;;15.50;99.90;;;;;;5094843;28;19938;-71
2021/06/08 03:10:36;;;;;;;;;;;15.50;99.90;;;;;;5094857;28;19912;-70
2021/06/08 03:13:04;;;;;;;;;;;15.50;99.90;;;;;;5094608;28;19918;-70
2021/06/08 03:15:40;;;;;;;;;;;15.60;99.90;;;;;;5094634;28;19961;-69
2021/06/08 03:18:08;;;;;;;;;;;15.60;99.90;;;;;;5094287;28;20301;-69
2021/06/08 03:20:37;;;;;;;;;;;15.60;99.90;;;;;;5094326;28;19986;-69
2021/06/08 03:23:08;;;;;;;;;;;15.60;99.90;;;;;;5093282;28;19908;-69
2021/06/08 03:25:36;;;;;;;;;;;15.70;99.90;;;;;;5094754;28;20476;-70
2021/06/08 03:28:03;;;;;;;;;;;15.70;99.90;;;;;;5094572;28;19916;-71
2021/06/08 03:30:31;;;;;;;;;;;15.80;99.90;;;;;;5094495;28;20002;-69
2021/06/08 03:32:59;;;;;;;;;;;15.90;99.90;;;;;;5094261;28;19912;-69
2021/06/08 03:35:27;;;;;;;;;;;15.90;99.90;;;;;;5094604;28;19908;-71
2021/06/08 03:37:55;;;;;;;;;;;15.90;99.90;;;;;;5096251;28;19953;-70
2021/06/08 03:40:22;;;;;;;;;;;15.80;99.90;;;;;;5096654;28;19916;-69
2021/06/08 03:42:49;;;;;;;;;;;15.90;99.90;;;;;;5095803;28;19908;-69
2021/06/08 03:45:17;;;;;;;;;;;15.80;99.90;;;;;;5094118;28;20104;-69
2021/06/08 03:47:48;;;;;;;;;;;15.80;99.90;;;;;;5093918;28;19917;-70
2021/06/08 03:50:15;;;;;;;;;;;15.90;99.90;;;;;;5094014;28;19919;-68
2021/06/08 03:52:55;;;;;;;;;;;16.00;99.90;;;;;;5093907;28;19999;-70
2021/06/08 03:55:23;;;;;;;;;;;16.00;99.90;;;;;;5093759;28;20116;-70
2021/06/08 03:57:52;;;;;;;;;;;16.20;99.90;;;;;;5093750;28;19977;-68
2021/06/08 04:00:20;;;;;;;;;;;16.40;99.90;;;;;;5093822;28;19908;-69
2021/06/08 04:02:47;;;;;;;;;;;16.70;99.90;;;;;;5093401;28;20010;-70
2021/06/08 04:05:14;;;;;;;;;;;16.70;99.90;;;;;;5093585;28;20355;-70
2021/06/08 04:07:42;;;;;;;;;;;16.70;99.90;;;;;;5093418;28;19916;-69
2021/06/08 04:10:09;;;;;;;;;;;16.70;99.90;;;;;;5093500;28;20287;-70
2021/06/08 04:12:36;;;;;;;;;;;16.70;99.90;;;;;;5093553;28;19961;-69
2021/06/08 04:15:07;;;;;;;;;;;16.60;99.90;;;;;;5093407;28;20238;-69
2021/06/08 04:17:34;;;;;;;;;;;16.60;99.90;;;;;;5092741;28;19999;-70
2021/06/08 04:20:00;;;;;;;;;;;16.60;99.90;;;;;;5093281;28;19908;-71
2021/06/08 04:22:28;;;;;;;;;;;16.60;99.90;;;;;;5093605;28;19951;-70
2021/06/08 04:24:55;;;;;;;;;;;16.60;99.90;;;;;;5093133;28;19973;-69
2021/06/08 04:27:23;;;;;;;;;;;16.70;99.90;;;;;;5093577;28;19962;-70
2021/06/08 04:29:50;;;;;;;;;;;16.60;99.90;;;;;;5093410;28;19962;-70
2021/06/08 04:32:17;;;;;;;;;;;16.70;99.90;;;;;;5093349;28;19940;-69
2021/06/08 04:34:50;;;;;;;;;;;16.70;99.90;;;;;;5092862;28;19953;-69
2021/06/08 04:37:17;;;;;;;;;;;16.70;99.90;;;;;;5093105;28;20385;-70
2021/06/08 04:39:44;;;;;;;;;;;16.70;99.90;;;;;;5091947;28;19954;-69
2021/06/08 04:42:12;;;;;;;;;;;16.80;99.90;;;;;;5093317;28;19908;-70
2021/06/08 04:44:46;;;;;;;;;;;16.80;99.90;;;;;;5093034;28;19919;-70
2021/06/08 04:47:13;;;;;;;;;;;16.70;99.90;;;;;;5093023;28;19920;-70
2021/06/08 04:49:40;;;;;;;;;;;16.60;99.90;;;;;;5092957;28;19915;-70
2021/06/08 04:52:07;;;;;;;;;;;16.70;99.90;;;;;;5092982;28;20314;-70
2021/06/08 04:54:34;;;;;;;;;;;16.80;99.90;;;;;;5092929;28;20003;-70
2021/06/08 04:57:02;;;;;;;;;;;16.80;99.90;;;;;;5093004;28;19970;-68
2021/06/08 04:59:33;;;;;;;;;;;16.80;99.90;;;;;;5093157;28;20336;-68
2021/06/08 05:02:02;;;;;;;;;;;16.70;99.90;;;;;;5093070;28;19931;-69
2021/06/08 05:04:31;;;;;;;;;;;16.70;99.90;;;;;;5092857;28;19908;-70
2021/06/08 05:06:59;;;;;;;;;;;16.60;99.90;;;;;;5092821;28;19917;-70
2021/06/08 05:09:30;;;;;;;;;;;16.60;99.90;;;;;;5093093;28;19912;-69
2021/06/08 05:12:01;;;;;;;;;;;16.60;99.90;;;;;;5093736;28;20401;-69
2021/06/08 05:14:29;;;;;;;;;;;16.50;99.90;;;;;;5093602;28;19909;-71
2021/06/08 05:16:56;;;;;;;;;;;16.40;99.90;;;;;;5092621;28;19915;-70
2021/06/08 05:19:23;;;;;;;;;;;16.40;99.90;;;;;;5092754;28;19915;-71
2021/06/08 05:21:50;;;;;;;;;;;16.30;99.90;;;;;;5093045;28;19909;-70
2021/06/08 05:24:18;;;;;;;;;;;16.30;99.90;;;;;;5093447;28;20259;-71
2021/06/08 05:26:46;;;;;;;;;;;16.30;99.90;;;;;;5093049;28;19916;-70
2021/06/08 05:29:16;;;;;;;;;;;16.20;99.90;;;;;;5094279;28;19951;-71
2021/06/08 05:31:43;;;;;;;;;;;16.20;99.90;;;;;;5097456;28;20351;-70
2021/06/08 05:34:11;;;;;;;;;;;16.20;99.90;;;;;;5097385;28;20350;-70
2021/06/08 05:36:38;;;;;;;;;;;16.20;99.90;;;;;;5099234;28;19908;-70
2021/06/08 05:39:06;;;;;;;;;;;16.20;99.90;;;;;;5097791;28;19986;-70
2021/06/08 05:41:33;;;;;;;;;;;16.20;99.90;;;;;;5097407;28;20293;-70
2021/06/08 05:44:00;;;;;;;;;;;16.20;99.90;;;;;;5096806;28;20358;-70
2021/06/08 05:46:28;;;;;;;;;;;16.20;99.90;;;;;;5094607;28;19927;-70
2021/06/08 05:48:55;;;;;;;;;;;16.20;99.90;;;;;;5095344;28;20423;-70
2021/06/08 05:51:22;;;;;;;;;;;16.10;99.90;;;;;;5096823;28;20369;-70
2021/06/08 05:53:49;;;;;;;;;;;16.10;99.90;;;;;;5095160;28;19915;-69
2021/06/08 05:56:16;;;;;;;;;;;16.10;99.90;;;;;;5096225;28;20359;-70
2021/06/08 05:58:42;;;;;;;;;;;16.10;99.90;;;;;;5095925;28;19977;-70
2021/06/08 06:01:10;;;;;;;;;;;16.10;99.90;;;;;;5096063;28;20362;-70
2021/06/08 06:03:37;;;;;;;;;;;16.10;99.90;;;;;;5095993;28;20321;-70
2021/06/08 06:06:05;;;;;;;;;;;16.10;99.90;;;;;;5095780;28;20068;-70
2021/06/08 06:08:32;;;;;;;;;;;16.10;99.90;;;;;;5095988;28;19913;-71
2021/06/08 06:10:59;;;;;;;;;;;16.00;99.90;;;;;;5095703;28;19908;-71
2021/06/08 06:13:26;;;;;;;;;;;16.00;99.90;;;;;;5094420;28;19912;-70
2021/06/08 06:15:54;;;;;;;;;;;16.10;99.90;;;;;;5095814;28;19942;-70
2021/06/08 06:18:21;;;;;;;;;;;16.00;99.90;;;;;;5095682;28;19940;-71
2021/06/08 06:20:50;;;;;;;;;;;16.10;99.90;;;;;;5095404;28;20302;-70
2021/06/08 06:23:17;;;;;;;;;;;16.10;99.90;;;;;;5095721;28;19919;-71
2021/06/08 06:25:44;;;;;;;;;;;16.10;99.90;;;;;;5095412;28;20007;-71
2021/06/08 06:28:12;;;;;;;;;;;16.10;99.90;;;;;;5095565;28;20391;-70
2021/06/08 06:30:39;;;;;;;;;;;16.10;99.90;;;;;;5095354;28;19909;-70
2021/06/08 06:33:05;;;;;;;;;;;16.00;99.90;;;;;;5095160;28;20278;-69
2021/06/08 06:35:33;;;;;;;;;;;16.00;99.90;;;;;;5095265;28;19968;-70
2021/06/08 06:38:02;;;;;;;;;;;16.00;99.90;;;;;;5098080;28;19923;-68
2021/06/08 06:40:31;;;;;;;;;;;16.00;99.90;;;;;;5097737;28;19909;-68
2021/06/08 06:43:02;;;;;;;;;;;15.90;99.90;;;;;;5097080;28;19915;-70
2021/06/08 06:45:29;;;;;;;;;;;16.00;99.90;;;;;;5095583;28;19931;-70
2021/06/08 06:48:05;;;;;;;;;;;15.90;99.90;;;;;;5095146;28;19974;-69
2021/06/08 06:50:33;;;;;;;;;;;15.90;99.90;;;;;;5095114;28;19915;-70
2021/06/08 06:53:01;;;;;;;;;;;16.00;99.90;;;;;;5094763;28;19908;-70
2021/06/08 06:55:28;;;;;;;;;;;15.90;99.90;;;;;;5095004;28;19969;-70
2021/06/08 06:57:55;;;;;;;;;;;15.90;99.90;;;;;;5094966;28;19914;-70
2021/06/08 07:00:23;;;;;;;;;;;15.90;99.90;;;;;;5094843;28;19909;-71
2021/06/08 07:02:52;;;;;;;;;;;15.90;99.90;;;;;;5095038;28;19915;-69
2021/06/08 07:05:20;;;;;;;;;;;15.90;99.90;;;;;;5094550;28;19922;-70
2021/06/08 07:07:48;;;;;;;;;;;15.90;99.90;;;;;;5094900;28;19961;-69
2021/06/08 07:10:16;;;;;;;;;;;15.80;99.90;;;;;;5094907;28;19908;-69
2021/06/08 07:12:43;;;;;;;;;;;15.70;99.90;;;;;;5094612;28;19954;-69
2021/06/08 07:15:10;;;;;;;;;;;15.70;99.90;;;;;;5094974;28;19915;-69
2021/06/08 07:17:38;;;;;;;;;;;15.70;99.90;;;;;;5094618;28;20377;-68
2021/06/08 07:20:05;;;;;;;;;;;15.60;99.90;;;;;;5094389;28;19961;-69
2021/06/08 07:22:33;;;;;;;;;;;15.60;99.90;;;;;;5094651;28;19912;-69
2021/06/08 07:25:02;;;;;;;;;;;15.60;99.90;;;;;;5094412;28;19915;-69
2021/06/08 07:27:28;;;;;;;;;;;15.70;99.90;;;;;;5094514;28;20363;-70
2021/06/08 07:29:56;;;;;;;;;;;15.70;99.90;;;;;;5094190;28;20072;-68
2021/06/08 07:32:29;;;;;;;;;;;15.70;99.90;;;;;;5094224;28;19908;-69
2021/06/08 07:35:01;;;;;;;;;;;15.70;99.90;;;;;;5094091;28;19912;-69
2021/06/08 07:37:29;;;;;;;;;;;15.70;99.90;;;;;;5094361;28;19908;-69
2021/06/08 07:39:59;;;;;;;;;;;15.70;99.90;;;;;;5092951;28;19959;-68
2021/06/08 07:42:42;;;;;;;;;;;15.60;99.90;;;;;;5092117;28;19916;-68
2021/06/08 07:45:19;;;;;;;;;;;15.60;99.90;;;;;;5091972;28;19912;-68
2021/06/08 07:47:51;;;;;;;;;;;15.60;99.90;;;;;;5091832;28;19920;-70
2021/06/08 07:50:18;;;;;;;;;;;15.60;99.90;;;;;;5091768;28;19912;-69
2021/06/08 07:52:45;;;;;;;;;;;15.50;99.90;;;;;;5091028;28;19912;-68
2021/06/08 07:55:28;;;;;;;;;;;15.40;99.90;;;;;;5067660;28;20238;-69
2021/06/08 07:57:55;;;;;;;;;;;15.40;99.90;;;;;;5089755;28;19931;-68
2021/06/08 08:00:22;;;;;;;;;;;15.30;99.90;;;;;;5071487;28;19908;-68
2021/06/08 08:02:50;;;;;;;;;;;15.30;99.90;;;;;;5073027;28;19996;-68
2021/06/08 08:05:18;;;;;;;;;;;15.20;99.90;;;;;;5070141;28;19935;-68
2021/06/08 08:07:46;;;;;;;;;;;15.30;99.90;;;;;;5071278;28;19921;-68
2021/06/08 08:10:13;;;;;;;;;;;15.30;99.90;;;;;;5072153;28;19916;-68
2021/06/08 08:12:41;;;;;;;;;;;15.20;99.90;;;;;;5070659;28;19908;-70
2021/06/08 08:15:09;;;;;;;;;;;15.30;99.90;;;;;;5070906;28;19919;-69
2021/06/08 08:17:37;;;;;;;;;;;15.30;99.90;;;;;;5071183;28;19939;-68
2021/06/08 08:20:09;;;;;;;;;;;15.20;99.90;;;;;;5070691;28;19931;-70
2021/06/08 08:22:36;;;;;;;;;;;15.20;99.90;;;;;;5071187;28;19923;-70
2021/06/08 08:25:03;;;;;;;;;;;15.20;99.90;;;;;;5070949;28;20319;-68
2021/06/08 08:27:30;;;;;;;;;;;15.10;99.90;;;;;;5070942;28;19916;-68
2021/06/08 08:29:57;;;;;;;;;;;15.10;99.90;;;;;;5103216;28;20003;-68
2021/06/08 08:32:23;;;;;;;;;;;15.00;99.90;;;;;;5070732;28;19913;-70
2021/06/08 08:34:50;;;;;;;;;;;15.00;99.90;;;;;;5069274;28;19955;-68
2021/06/08 08:37:17;;;;;;;;;;;14.90;99.90;;;;;;5071001;28;19920;-68
2021/06/08 08:39:45;;;;;;;;;;;14.90;99.90;;;;;;5070844;28;19909;-68
2021/06/08 08:42:13;;;;;;;;;;;14.80;99.90;;;;;;5070829;28;19949;-70
2021/06/08 08:44:40;;;;;;;;;;;14.70;99.90;;;;;;5070677;28;19962;-68
2021/06/08 08:47:08;;;;;;;;;;;14.70;99.90;;;;;;5069841;28;20019;-69
2021/06/08 08:49:35;;;;;;;;;;;14.60;99.90;;;;;;5102920;28;20007;-68
2021/06/08 08:52:03;;;;;;;;;;;14.50;99.90;;;;;;5070805;28;19909;-68
2021/06/08 08:54:30;;;;;;;;;;;14.50;99.90;;;;;;5070813;28;19952;-68
2021/06/08 08:56:57;;;;;;;;;;;14.40;99.90;;;;;;5070706;28;19912;-69
2021/06/08 08:59:24;;;;;;;;;;;14.40;99.90;;;;;;5070363;28;19915;-70
2021/06/08 09:01:52;;;;;;;;;;;14.40;99.90;;;;;;5068617;28;19908;-69
2021/06/08 09:04:19;;;;;;;;;;;14.30;99.90;;;;;;5071692;28;19909;-68
2021/06/08 09:06:46;;;;;;;;;;;14.20;99.90;;;;;;5076283;28;19921;-68
2021/06/08 09:09:13;;;;;;;;;;;14.20;99.90;;;;;;5076643;28;19908;-70
2021/06/08 09:11:43;;;;;;;;;;;14.20;99.90;;;;;;5076969;28;19915;-69
2021/06/08 09:14:11;;;;;;;;;;;14.20;99.90;;;;;;5076432;28;19915;-69
2021/06/08 09:16:38;;;;;;;;;;;14.20;99.90;;;;;;5075657;28;19908;-70
2021/06/08 09:19:05;;;;;;;;;;;14.20;99.90;;;;;;5076036;28;19908;-68
2021/06/08 09:21:33;;;;;;;;;;;14.10;99.90;;;;;;5076191;28;19977;-70
2021/06/08 09:24:22;;;;;;;;;;;14.10;99.90;;;;;;5076226;28;19908;-69
2021/06/08 09:26:53;;;;;;;;;;;14.00;99.90;;;;;;5075896;28;19916;-69
2021/06/08 09:29:39;;;;;;;;;;;14.00;99.90;;;;;;5076044;28;19908;-68
2021/06/08 09:32:18;;;;;;;;;;;14.00;99.90;;;;;;5076048;28;19913;-69
2021/06/08 09:34:49;;;;;;;;;;;14.00;99.90;;;;;;5075819;28;19908;-71
2021/06/08 09:37:16;;;;;;;;;;;14.00;99.90;;;;;;5076089;28;20276;-69
2021/06/08 09:39:47;;;;;;;;;;;14.00;99.90;;;;;;5076037;28;20336;-71
2021/06/08 09:42:22;;;;;;;;;;;14.00;99.90;;;;;;5075987;28;19977;-69
2021/06/08 09:44:49;;;;;;;;;;;13.90;99.90;;;;;;5075271;28;19964;-70
2021/06/08 09:47:25;;;;;;;;;;;13.80;99.90;;;;;;5075921;28;19920;-70
2021/06/08 09:49:52;;;;;;;;;;;13.70;99.90;;;;;;5075981;28;19912;-70
2021/06/08 09:52:20;;;;;;;;;;;13.60;99.90;;;;;;5075850;28;20370;-70
2021/06/08 09:54:52;;;;;;;;;;;13.50;99.90;;;;;;5075604;28;19915;-71
2021/06/08 09:57:27;;;;;;;;;;;13.50;99.90;;;;;;5075885;28;19951;-71
2021/06/08 09:59:56;;;;;;;;;;;13.40;99.90;;;;;;5075666;28;19954;-70
2021/06/08 10:02:28;;;;;;;;;;;13.30;99.90;;;;;;5075477;28;19909;-70
2021/06/08 10:05:14;;;;;;;;;;;13.20;99.90;;;;;;5075560;28;19909;-71
2021/06/08 10:07:42;;;;;;;;;;;13.10;99.90;;;;;;5075412;28;19982;-70
2021/06/08 10:10:11;;;;;;;;;;;13.00;99.90;;;;;;5075682;28;19912;-71
2021/06/08 10:12:56;;;;;;;;;;;13.00;99.90;;;;;;5075510;28;19953;-71
2021/06/08 10:15:24;;;;;;;;;;;12.90;99.90;;;;;;5075159;28;19931;-70
2021/06/08 10:17:58;;;;;;;;;;;12.80;99.90;;;;;;5075344;28;20351;-72
2021/06/08 10:20:25;;;;;;;;;;;12.80;99.90;;;;;;5075340;28;19915;-71
2021/06/08 10:22:52;;;;;;;;;;;12.80;99.90;;;;;;5075116;28;19912;-71
2021/06/08 10:25:19;;;;;;;;;;;12.80;99.90;;;;;;5075209;28;19908;-71
2021/06/08 10:27:46;;;;;;;;;;;12.80;99.90;;;;;;5075251;28;20055;-71
2021/06/08 10:30:13;;;;;;;;;;;12.70;99.90;;;;;;5075142;28;19908;-71
2021/06/08 10:32:41;;;;;;;;;;;12.70;99.90;;;;;;5075027;28;20511;-70
2021/06/08 10:35:09;;;;;;;;;;;12.70;99.90;;;;;;5074871;28;19909;-70
2021/06/08 10:37:37;;;;;;;;;;;12.70;99.90;;;;;;5074939;28;19995;-70
2021/06/08 10:40:04;;;;;;;;;;;12.90;99.90;;;;;;5074981;28;19909;-71
2021/06/08 10:42:31;;;;;;;;;;;12.90;99.90;;;;;;5075038;28;19912;-69
2021/06/08 10:45:01;;;;;;;;;;;12.90;99.90;;;;;;5074405;28;20022;-68
2021/06/08 10:47:35;;;;;;;;;;;13.00;99.90;;;;;;5074557;28;19923;-68
2021/06/08 10:50:02;;;;;;;;;;;13.00;99.90;;;;;;5074646;28;19930;-69
2021/06/08 10:52:44;;;;;;;;;;;13.00;99.90;;;;;;5074647;28;20006;-69
2021/06/08 10:55:11;;;;;;;;;;;12.90;99.90;;;;;;5074290;28;20275;-71
2021/06/08 10:57:44;;;;;;;;;;;12.90;99.90;;;;;;5074375;28;19951;-71
2021/06/08 11:00:31;;;;;;;;;;;12.80;99.90;;;;;;5074442;28;19908;-71
2021/06/08 11:03:02;;;;;;;;;;;12.70;99.90;;;;;;5074184;28;19908;-71
2021/06/08 11:05:53;;;;;;;;;;;12.50;99.90;;;;;;5074435;28;19908;-71
2021/06/08 11:08:20;;;;;;;;;;;12.50;99.90;;;;;;5071391;28;20333;-69
2021/06/08 11:10:52;;;;;;;;;;;12.50;99.90;;;;;;5073799;28;19916;-72
2021/06/08 11:13:18;;;;;;;;;;;12.60;99.90;;;;;;5074397;28;19908;-73
2021/06/08 11:15:49;;;;;;;;;;;12.60;99.90;;;;;;5074311;28;19912;-71
2021/06/08 11:18:19;;;;;;;;;;;12.60;99.90;;;;;;5072984;28;19920;-71
2021/06/08 11:20:46;;;;;;;;;;;12.60;99.90;;;;;;5074479;28;20264;-73
2021/06/08 11:23:31;;;;;;;;;;;12.60;99.90;;;;;;5074106;28;20352;-71
2021/06/08 11:25:57;;;;;;;;;;;12.70;99.90;;;;;;5073267;28;19909;-70
2021/06/08 11:28:40;;;;;;;;;;;12.70;99.90;;;;;;5073222;28;19916;-71
2021/06/08 11:31:06;;;;;;;;;;;12.70;99.90;;;;;;5073723;28;19953;-72
2021/06/08 11:33:33;;;;;;;;;;;12.60;99.90;;;;;;5073682;28;20359;-73
2021/06/08 11:36:01;;;;;;;;;;;12.60;99.90;;;;;;5073755;28;19909;-71
2021/06/08 11:38:33;;;;;;;;;;;12.60;99.90;;;;;;5073648;28;19908;-71
2021/06/08 11:41:04;;;;;;;;;;;12.60;99.90;;;;;;5104500;28;19923;-72
2021/06/08 11:43:31;;;;;;;;;;;12.50;99.90;;;;;;5073601;28;19923;-72
2021/06/08 11:46:06;;;;;;;;;;;12.50;99.90;;;;;;5073530;28;20445;-72
2021/06/08 11:48:37;;;;;;;;;;;12.60;99.90;;;;;;5073390;28;20279;-73
2021/06/08 11:51:23;;;;;;;;;;;12.60;99.90;;;;;;5073509;28;20003;-71
2021/06/08 11:54:00;;;;;;;;;;;12.70;99.90;;;;;;5074344;28;19908;-71
2021/06/08 11:56:43;;;;;;;;;;;12.80;99.90;;;;;;5073386;28;20255;-72
2021/06/08 11:59:10;;;;;;;;;;;12.80;99.90;;;;;;5073364;28;19915;-72
2021/06/08 12:01:41;;;;;;;;;;;12.80;99.90;;;;;;5073219;28;20011;-70
2021/06/08 12:04:08;;;;;;;;;;;12.80;99.90;;;;;;5073316;28;20415;-72
2021/06/08 12:07:07;;;;;;;;;;;12.80;99.90;;;;;;5073304;28;20009;-71
2021/06/08 12:09:38;;;;;;;;;;;12.80;99.90;;;;;;5060696;28;20490;-72
2021/06/08 12:12:09;;;;;;;;;;;12.80;99.90;;;;;;5073293;28;19908;-71
2021/06/08 12:14:36;;;;;;;;;;;12.80;99.90;;;;;;5072929;28;19913;-72
2021/06/08 12:17:03;;;;;;;;;;;12.80;99.90;;;;;;5073012;28;19918;-72
2021/06/08 12:19:32;;;;;;;;;;;12.80;99.90;;;;;;5073324;28;19951;-71
2021/06/08 12:22:01;;;;;;;;;;;12.80;99.90;;;;;;5073156;28;19909;-72
2021/06/08 12:24:28;;;;;;;;;;;12.70;99.90;;;;;;5073083;28;19916;-69
2021/06/08 12:26:56;;;;;;;;;;;12.70;99.90;;;;;;5072867;28;19916;-71
2021/06/08 12:29:23;;;;;;;;;;;12.70;99.90;;;;;;5073147;28;19951;-72
2021/06/08 12:32:10;;;;;;;;;;;12.70;99.90;;;;;;5073047;28;20363;-72
2021/06/08 12:34:37;;;;;;;;;;;12.70;99.90;;;;;;5073186;28;19913;-72
2021/06/08 12:37:04;;;;;;;;;;;12.60;99.90;;;;;;5072809;28;20363;-70
2021/06/08 12:39:32;;;;;;;;;;;12.60;99.90;;;;;;5072937;28;19913;-73
2021/06/08 12:42:15;;;;;;;;;;;12.70;99.90;;;;;;5072996;28;19909;-73
2021/06/08 12:44:45;;;;;;;;;;;12.60;99.90;;;;;;5072796;28;19909;-72
2021/06/08 12:47:12;;;;;;;;;;;12.60;99.90;;;;;;5072817;28;19917;-72
2021/06/08 12:49:40;;;;;;;;;;;12.60;99.90;;;;;;5072771;28;19909;-73
2021/06/08 12:52:08;;;;;;;;;;;12.70;99.90;;;;;;5072815;28;19909;-72
2021/06/08 12:54:40;;;;;;;;;;;12.70;99.90;;;;;;5072890;28;19908;-73
2021/06/08 12:57:21;;;;;;;;;;;12.60;99.90;;;;;;5072512;28;20011;-72
2021/06/08 13:00:08;;;;;;;;;;;12.50;99.90;;;;;;5072799;28;20302;-72
2021/06/08 13:02:36;;;;;;;;;;;12.50;99.90;;;;;;5072647;28;19916;-73
2021/06/08 13:05:10;;;;;;;;;;;12.50;99.90;;;;;;5072511;28;20049;-73
2021/06/08 13:07:39;;;;;;;;;;;12.50;99.90;;;;;;5072641;28;20264;-72
2021/06/08 13:10:10;;;;;;;;;;;12.50;99.90;;;;;;5072505;28;19908;-73
2021/06/08 13:12:40;;;;;;;;;;;12.50;99.90;;;;;;5072643;28;19916;-72
2021/06/08 13:15:08;;;;;;;;;;;12.50;99.90;;;;;;5072442;28;19908;-72
2021/06/08 13:17:34;;;;;;;;;;;12.50;99.90;;;;;;5072489;28;19908;-73
2021/06/08 13:20:01;;;;;;;;;;;12.40;99.90;;;;;;5072657;28;19908;-72
2021/06/08 13:22:29;;;;;;;;;;;12.40;99.90;;;;;;5072650;28;19939;-71
2021/06/08 13:24:59;;;;;;;;;;;12.30;99.90;;;;;;5072470;28;19913;-72
2021/06/08 13:27:29;;;;;;;;;;;12.30;99.90;;;;;;5072506;28;19921;-71
2021/06/08 13:30:03;;;;;;;;;;;12.30;99.90;;;;;;5072580;28;19912;-72
2021/06/08 13:32:31;;;;;;;;;;;12.40;99.90;;;;;;5072615;28;20281;-72
2021/06/08 13:35:13;;;;;;;;;;;12.30;99.90;;;;;;5072574;28;20266;-73
2021/06/08 13:37:41;;;;;;;;;;;12.40;99.90;;;;;;5073586;28;19909;-72
2021/06/08 13:40:14;;;;;;;;;;;12.40;99.90;;;;;;5074051;28;19908;-73
2021/06/08 13:42:43;;;;;;;;;;;12.40;99.90;;;;;;5075838;28;19908;-71
2021/06/08 13:45:11;;;;;;;;;;;12.40;99.90;;;;;;5078040;28;20008;-72
2021/06/08 13:47:39;;;;;;;;;;;12.40;99.90;;;;;;5083883;28;19917;-73
2021/06/08 13:50:20;;;;;;;;;;;12.40;99.90;;;;;;5088860;28;19912;-72
2021/06/08 13:53:05;;;;;;;;;;;12.40;99.90;;;;;;5077616;28;20320;-73
2021/06/08 13:55:35;;;;;;;;;;;12.40;99.90;;;;;;5076196;28;19909;-72
2021/06/08 14:01:15;;;;;;;;;;;12.50;99.90;;;;;;5073470;28;19931;-72
2021/06/08 14:03:42;;;;;;;;;;;12.60;99.90;;;;;;5108410;28;19912;-73
2021/06/08 14:06:14;;;;;;;;;;;12.50;99.90;;;;;;5075550;28;20012;-73
2021/06/08 14:08:41;;;;;;;;;;;12.50;99.90;;;;;;5075706;28;19920;-73
2021/06/08 14:11:08;;;;;;;;;;;12.60;99.90;;;;;;5075536;28;19909;-72
2021/06/08 14:13:44;;;;;;;;;;;12.70;99.90;;;;;;5075459;28;19909;-71
2021/06/08 14:16:19;;;;;;;;;;;12.70;99.90;;;;;;5075502;28;19915;-73
2021/06/08 14:18:45;;;;;;;;;;;12.80;99.90;;;;;;5075140;28;19913;-72
2021/06/08 14:21:12;;;;;;;;;;;12.80;99.90;;;;;;5075332;28;19966;-73
2021/06/08 14:23:40;;;;;;;;;;;12.70;99.90;;;;;;5075366;28;19952;-73
2021/06/08 14:26:16;;;;;;;;;;;12.70;99.90;;;;;;5075137;28;19916;-72
2021/06/08 14:28:43;;;;;;;;;;;12.60;99.90;;;;;;5075211;28;19969;-71
2021/06/08 14:31:09;;;;;;;;;;;12.70;99.90;;;;;;5075063;28;19908;-72
2021/06/08 14:33:37;;;;;;;;;;;12.70;99.90;;;;;;5075152;28;19912;-71